sensor_id;sensor_type;location;lat;lon;timestamp;P1;durP1;ratioP1;P2;durP2;ratioP2
16900;SDS011;8567;52.540;6.434;2022-08-19T00:00:49;7.10;;;6.70;;
16900;SDS011;8567;52.540;6.434;2022-08-19T00:03:16;6.78;;;6.47;;
16900;SDS011;8567;52.540;6.434;2022-08-19T00:05:44;6.97;;;6.63;;
16900;SDS011;8567;52.540;6.434;2022-08-19T00:08:11;7.45;;;7.10;;
16900;SDS011;8567;52.540;6.434;2022-08-19T00:10:38;6.57;;;6.28;;
16900;SDS011;8567;52.540;6.434;2022-08-19T00:13:05;6.90;;;6.60;;
16900;SDS011;8567;52.540;6.434;2022-08-19T00:15:32;6.63;;;6.32;;
16900;SDS011;8567;52.540;6.434;2022-08-19T00:17:58;7.50;;;7.10;;
16900;SDS011;8567;52.540;6.434;2022-08-19T00:20:25;6.70;;;6.40;;
16900;SDS011;8567;52.540;6.434;2022-08-19T00:22:53;6.57;;;6.28;;
16900;SDS011;8567;52.540;6.434;2022-08-19T00:25:20;7.07;;;6.78;;
16900;SDS011;8567;52.540;6.434;2022-08-19T00:27:48;6.75;;;6.45;;
16900;SDS011;8567;52.540;6.434;2022-08-19T00:30:15;6.88;;;6.47;;
16900;SDS011;8567;52.540;6.434;2022-08-19T00:32:41;7.05;;;6.75;;
16900;SDS011;8567;52.540;6.434;2022-08-19T00:35:08;7.65;;;7.25;;
16900;SDS011;8567;52.540;6.434;2022-08-19T00:37:36;6.63;;;6.32;;
16900;SDS011;8567;52.540;6.434;2022-08-19T00:40:10;6.53;;;6.22;;
16900;SDS011;8567;52.540;6.434;2022-08-19T00:42:38;7.03;;;6.72;;
16900;SDS011;8567;52.540;6.434;2022-08-19T00:45:08;6.90;;;6.50;;
16900;SDS011;8567;52.540;6.434;2022-08-19T00:47:37;6.43;;;6.13;;
16900;SDS011;8567;52.540;6.434;2022-08-19T00:50:05;6.57;;;6.28;;
16900;SDS011;8567;52.540;6.434;2022-08-19T00:52:35;7.28;;;6.88;;
16900;SDS011;8567;52.540;6.434;2022-08-19T00:55:07;6.95;;;6.65;;
16900;SDS011;8567;52.540;6.434;2022-08-19T00:57:40;6.93;;;6.63;;
16900;SDS011;8567;52.540;6.434;2022-08-19T01:00:11;6.68;;;6.38;;
16900;SDS011;8567;52.540;6.434;2022-08-19T01:02:40;7.18;;;6.88;;
16900;SDS011;8567;52.540;6.434;2022-08-19T01:05:09;7.18;;;6.88;;
16900;SDS011;8567;52.540;6.434;2022-08-19T01:07:38;7.40;;;7.10;;
16900;SDS011;8567;52.540;6.434;2022-08-19T01:10:07;7.93;;;7.53;;
16900;SDS011;8567;52.540;6.434;2022-08-19T01:12:38;6.85;;;6.55;;
16900;SDS011;8567;52.540;6.434;2022-08-19T01:15:06;7.82;;;7.47;;
16900;SDS011;8567;52.540;6.434;2022-08-19T01:17:36;8.55;;;8.15;;
16900;SDS011;8567;52.540;6.434;2022-08-19T01:20:05;8.07;;;7.68;;
16900;SDS011;8567;52.540;6.434;2022-08-19T01:22:38;8.23;;;7.82;;
16900;SDS011;8567;52.540;6.434;2022-08-19T01:25:09;8.10;;;7.70;;
16900;SDS011;8567;52.540;6.434;2022-08-19T01:27:37;7.80;;;7.40;;
16900;SDS011;8567;52.540;6.434;2022-08-19T01:30:05;8.15;;;7.75;;
16900;SDS011;8567;52.540;6.434;2022-08-19T01:32:34;8.32;;;7.82;;
16900;SDS011;8567;52.540;6.434;2022-08-19T01:35:01;8.23;;;7.82;;
16900;SDS011;8567;52.540;6.434;2022-08-19T01:37:29;8.07;;;7.68;;
16900;SDS011;8567;52.540;6.434;2022-08-19T01:40:09;8.70;;;8.30;;
16900;SDS011;8567;52.540;6.434;2022-08-19T01:42:37;8.90;;;8.50;;
16900;SDS011;8567;52.540;6.434;2022-08-19T01:45:04;9.20;;;8.80;;
16900;SDS011;8567;52.540;6.434;2022-08-19T01:47:33;8.73;;;8.32;;
16900;SDS011;8567;52.540;6.434;2022-08-19T01:50:00;9.10;;;8.70;;
16900;SDS011;8567;52.540;6.434;2022-08-19T01:52:27;9.25;;;8.80;;
16900;SDS011;8567;52.540;6.434;2022-08-19T01:54:53;9.38;;;8.93;;
16900;SDS011;8567;52.540;6.434;2022-08-19T01:57:22;8.82;;;8.43;;
16900;SDS011;8567;52.540;6.434;2022-08-19T01:59:48;9.45;;;9.05;;
16900;SDS011;8567;52.540;6.434;2022-08-19T02:02:16;10.07;;;9.57;;
16900;SDS011;8567;52.540;6.434;2022-08-19T02:04:43;8.68;;;8.27;;
16900;SDS011;8567;52.540;6.434;2022-08-19T02:07:10;9.45;;;9.05;;
16900;SDS011;8567;52.540;6.434;2022-08-19T02:09:37;10.30;;;9.80;;
16900;SDS011;8567;52.540;6.434;2022-08-19T02:12:04;10.07;;;9.57;;
16900;SDS011;8567;52.540;6.434;2022-08-19T02:14:34;10.27;;;9.77;;
16900;SDS011;8567;52.540;6.434;2022-08-19T02:17:01;9.93;;;9.43;;
16900;SDS011;8567;52.540;6.434;2022-08-19T02:19:28;10.48;;;9.98;;
16900;SDS011;8567;52.540;6.434;2022-08-19T02:21:56;10.77;;;10.27;;
16900;SDS011;8567;52.540;6.434;2022-08-19T02:24:23;10.52;;;10.02;;
16900;SDS011;8567;52.540;6.434;2022-08-19T02:26:50;10.38;;;9.88;;
16900;SDS011;8567;52.540;6.434;2022-08-19T02:29:17;10.40;;;9.90;;
16900;SDS011;8567;52.540;6.434;2022-08-19T02:31:45;11.05;;;10.55;;
16900;SDS011;8567;52.540;6.434;2022-08-19T02:34:12;11.07;;;10.57;;
16900;SDS011;8567;52.540;6.434;2022-08-19T02:36:39;10.70;;;10.20;;
16900;SDS011;8567;52.540;6.434;2022-08-19T02:39:05;10.93;;;10.43;;
16900;SDS011;8567;52.540;6.434;2022-08-19T02:41:32;10.45;;;9.95;;
16900;SDS011;8567;52.540;6.434;2022-08-19T02:44:00;10.98;;;10.40;;
16900;SDS011;8567;52.540;6.434;2022-08-19T02:46:29;10.07;;;9.57;;
16900;SDS011;8567;52.540;6.434;2022-08-19T02:48:59;9.85;;;9.35;;
16900;SDS011;8567;52.540;6.434;2022-08-19T02:51:30;9.80;;;9.40;;
16900;SDS011;8567;52.540;6.434;2022-08-19T02:53:58;9.00;;;8.60;;
16900;SDS011;8567;52.540;6.434;2022-08-19T02:56:25;9.23;;;8.82;;
16900;SDS011;8567;52.540;6.434;2022-08-19T02:58:52;9.95;;;9.35;;
16900;SDS011;8567;52.540;6.434;2022-08-19T03:01:20;9.07;;;8.68;;
16900;SDS011;8567;52.540;6.434;2022-08-19T03:03:48;9.65;;;9.20;;
16900;SDS011;8567;52.540;6.434;2022-08-19T03:06:17;10.65;;;10.15;;
16900;SDS011;8567;52.540;6.434;2022-08-19T03:08:44;9.63;;;9.23;;
16900;SDS011;8567;52.540;6.434;2022-08-19T03:11:13;9.63;;;9.23;;
16900;SDS011;8567;52.540;6.434;2022-08-19T03:13:42;10.25;;;9.75;;
16900;SDS011;8567;52.540;6.434;2022-08-19T03:16:09;10.20;;;9.70;;
16900;SDS011;8567;52.540;6.434;2022-08-19T03:18:37;10.23;;;9.73;;
16900;SDS011;8567;52.540;6.434;2022-08-19T03:21:04;9.35;;;8.95;;
16900;SDS011;8567;52.540;6.434;2022-08-19T03:23:33;9.57;;;9.18;;
16900;SDS011;8567;52.540;6.434;2022-08-19T03:26:02;9.00;;;8.60;;
16900;SDS011;8567;52.540;6.434;2022-08-19T03:28:31;8.50;;;8.10;;
16900;SDS011;8567;52.540;6.434;2022-08-19T03:31:00;9.07;;;8.68;;
16900;SDS011;8567;52.540;6.434;2022-08-19T03:33:29;8.70;;;8.30;;
16900;SDS011;8567;52.540;6.434;2022-08-19T03:38:45;8.35;;;7.95;;
16900;SDS011;8567;52.540;6.434;2022-08-19T03:41:15;8.25;;;7.85;;
16900;SDS011;8567;52.540;6.434;2022-08-19T03:43:44;8.45;;;8.05;;
16900;SDS011;8567;52.540;6.434;2022-08-19T03:46:14;8.50;;;8.10;;
16900;SDS011;8567;52.540;6.434;2022-08-19T03:48:43;7.85;;;7.55;;
16900;SDS011;8567;52.540;6.434;2022-08-19T03:51:15;8.63;;;8.23;;
16900;SDS011;8567;52.540;6.434;2022-08-19T03:53:45;8.02;;;7.63;;
16900;SDS011;8567;52.540;6.434;2022-08-19T03:56:13;8.05;;;7.65;;
16900;SDS011;8567;52.540;6.434;2022-08-19T03:58:41;8.52;;;8.13;;
16900;SDS011;8567;52.540;6.434;2022-08-19T04:01:08;8.07;;;7.68;;
16900;SDS011;8567;52.540;6.434;2022-08-19T04:03:37;7.80;;;7.40;;
16900;SDS011;8567;52.540;6.434;2022-08-19T04:06:11;7.60;;;7.30;;
16900;SDS011;8567;52.540;6.434;2022-08-19T04:08:39;7.35;;;7.05;;
16900;SDS011;8567;52.540;6.434;2022-08-19T04:11:09;7.78;;;7.47;;
16900;SDS011;8567;52.540;6.434;2022-08-19T04:13:36;7.68;;;7.38;;
16900;SDS011;8567;52.540;6.434;2022-08-19T04:16:03;8.23;;;7.82;;
16900;SDS011;8567;52.540;6.434;2022-08-19T04:18:30;7.97;;;7.57;;
16900;SDS011;8567;52.540;6.434;2022-08-19T04:20:58;7.90;;;7.50;;
16900;SDS011;8567;52.540;6.434;2022-08-19T04:23:25;8.77;;;8.38;;
16900;SDS011;8567;52.540;6.434;2022-08-19T04:25:53;8.52;;;8.13;;
16900;SDS011;8567;52.540;6.434;2022-08-19T04:28:22;8.75;;;8.35;;
16900;SDS011;8567;52.540;6.434;2022-08-19T04:30:50;7.78;;;7.47;;
16900;SDS011;8567;52.540;6.434;2022-08-19T04:33:19;7.75;;;7.45;;
16900;SDS011;8567;52.540;6.434;2022-08-19T04:35:48;8.80;;;8.40;;
16900;SDS011;8567;52.540;6.434;2022-08-19T04:38:19;8.45;;;8.05;;
16900;SDS011;8567;52.540;6.434;2022-08-19T04:40:48;7.47;;;7.18;;
16900;SDS011;8567;52.540;6.434;2022-08-19T04:43:36;8.07;;;7.68;;
16900;SDS011;8567;52.540;6.434;2022-08-19T04:46:04;8.07;;;7.68;;
16900;SDS011;8567;52.540;6.434;2022-08-19T04:48:32;7.80;;;7.50;;
16900;SDS011;8567;52.540;6.434;2022-08-19T04:50:59;8.40;;;7.90;;
16900;SDS011;8567;52.540;6.434;2022-08-19T04:53:27;8.98;;;8.48;;
16900;SDS011;8567;52.540;6.434;2022-08-19T04:55:55;8.85;;;8.45;;
16900;SDS011;8567;52.540;6.434;2022-08-19T04:58:22;8.10;;;7.70;;
16900;SDS011;8567;52.540;6.434;2022-08-19T05:00:50;8.60;;;8.10;;
16900;SDS011;8567;52.540;6.434;2022-08-19T05:03:18;8.38;;;7.88;;
16900;SDS011;8567;52.540;6.434;2022-08-19T05:05:45;8.00;;;7.60;;
16900;SDS011;8567;52.540;6.434;2022-08-19T05:08:14;8.52;;;8.10;;
16900;SDS011;8567;52.540;6.434;2022-08-19T05:10:45;8.40;;;7.90;;
16900;SDS011;8567;52.540;6.434;2022-08-19T05:13:13;8.27;;;7.88;;
16900;SDS011;8567;52.540;6.434;2022-08-19T05:15:41;9.00;;;8.60;;
16900;SDS011;8567;52.540;6.434;2022-08-19T05:18:09;8.60;;;8.20;;
16900;SDS011;8567;52.540;6.434;2022-08-19T05:20:54;8.75;;;8.35;;
16900;SDS011;8567;52.540;6.434;2022-08-19T05:23:38;9.52;;;9.05;;
16900;SDS011;8567;52.540;6.434;2022-08-19T05:26:06;9.50;;;9.00;;
16900;SDS011;8567;52.540;6.434;2022-08-19T05:28:34;9.18;;;8.77;;
16900;SDS011;8567;52.540;6.434;2022-08-19T05:31:01;8.60;;;8.20;;
16900;SDS011;8567;52.540;6.434;2022-08-19T05:33:29;8.60;;;8.20;;
16900;SDS011;8567;52.540;6.434;2022-08-19T05:35:56;9.60;;;9.00;;
16900;SDS011;8567;52.540;6.434;2022-08-19T05:38:23;9.82;;;9.43;;
16900;SDS011;8567;52.540;6.434;2022-08-19T05:40:51;9.80;;;9.40;;
16900;SDS011;8567;52.540;6.434;2022-08-19T05:43:18;10.75;;;10.25;;
16900;SDS011;8567;52.540;6.434;2022-08-19T05:45:45;10.95;;;10.45;;
16900;SDS011;8567;52.540;6.434;2022-08-19T05:48:12;10.23;;;9.73;;
16900;SDS011;8567;52.540;6.434;2022-08-19T05:50:41;10.48;;;9.98;;
16900;SDS011;8567;52.540;6.434;2022-08-19T05:53:10;10.43;;;9.93;;
16900;SDS011;8567;52.540;6.434;2022-08-19T05:55:37;11.48;;;10.98;;
16900;SDS011;8567;52.540;6.434;2022-08-19T05:58:04;12.32;;;11.73;;
16900;SDS011;8567;52.540;6.434;2022-08-19T06:00:32;11.43;;;10.85;;
16900;SDS011;8567;52.540;6.434;2022-08-19T06:02:59;10.88;;;10.38;;
16900;SDS011;8567;52.540;6.434;2022-08-19T06:05:28;11.77;;;11.18;;
16900;SDS011;8567;52.540;6.434;2022-08-19T06:07:57;11.43;;;10.93;;
16900;SDS011;8567;52.540;6.434;2022-08-19T06:10:24;11.07;;;10.48;;
16900;SDS011;8567;52.540;6.434;2022-08-19T06:12:52;10.80;;;10.30;;
16900;SDS011;8567;52.540;6.434;2022-08-19T06:15:19;11.18;;;10.68;;
16900;SDS011;8567;52.540;6.434;2022-08-19T06:17:51;10.45;;;9.95;;
16900;SDS011;8567;52.540;6.434;2022-08-19T06:20:18;11.07;;;10.57;;
16900;SDS011;8567;52.540;6.434;2022-08-19T06:22:45;10.43;;;9.93;;
16900;SDS011;8567;52.540;6.434;2022-08-19T06:25:17;10.38;;;9.57;;
16900;SDS011;8567;52.540;6.434;2022-08-19T06:27:45;10.52;;;10.02;;
16900;SDS011;8567;52.540;6.434;2022-08-19T06:30:12;9.98;;;9.48;;
16900;SDS011;8567;52.540;6.434;2022-08-19T06:32:39;10.68;;;10.13;;
16900;SDS011;8567;52.540;6.434;2022-08-19T06:35:06;11.52;;;10.73;;
16900;SDS011;8567;52.540;6.434;2022-08-19T06:37:33;11.00;;;10.40;;
16900;SDS011;8567;52.540;6.434;2022-08-19T06:40:00;10.15;;;9.65;;
16900;SDS011;8567;52.540;6.434;2022-08-19T06:42:28;10.52;;;9.93;;
16900;SDS011;8567;52.540;6.434;2022-08-19T06:44:55;10.75;;;10.07;;
16900;SDS011;8567;52.540;6.434;2022-08-19T06:47:22;10.07;;;9.57;;
16900;SDS011;8567;52.540;6.434;2022-08-19T06:49:52;11.10;;;10.50;;
16900;SDS011;8567;52.540;6.434;2022-08-19T06:52:24;10.43;;;9.82;;
16900;SDS011;8567;52.540;6.434;2022-08-19T06:54:51;11.15;;;10.55;;
16900;SDS011;8567;52.540;6.434;2022-08-19T06:57:20;10.85;;;10.25;;
16900;SDS011;8567;52.540;6.434;2022-08-19T06:59:48;10.60;;;10.05;;
16900;SDS011;8567;52.540;6.434;2022-08-19T07:02:15;11.00;;;10.30;;
16900;SDS011;8567;52.540;6.434;2022-08-19T07:04:41;12.02;;;11.43;;
16900;SDS011;8567;52.540;6.434;2022-08-19T07:07:09;11.02;;;10.52;;
16900;SDS011;8567;52.540;6.434;2022-08-19T07:09:38;11.32;;;10.70;;
16900;SDS011;8567;52.540;6.434;2022-08-19T07:12:08;11.60;;;10.63;;
16900;SDS011;8567;52.540;6.434;2022-08-19T07:14:37;10.75;;;10.15;;
16900;SDS011;8567;52.540;6.434;2022-08-19T07:17:06;10.98;;;10.38;;
16900;SDS011;8567;52.540;6.434;2022-08-19T07:19:36;10.50;;;9.90;;
16900;SDS011;8567;52.540;6.434;2022-08-19T07:22:04;10.35;;;9.85;;
16900;SDS011;8567;52.540;6.434;2022-08-19T07:24:33;9.82;;;9.25;;
16900;SDS011;8567;52.540;6.434;2022-08-19T07:27:00;9.85;;;9.35;;
16900;SDS011;8567;52.540;6.434;2022-08-19T07:29:30;9.50;;;9.00;;
16900;SDS011;8567;52.540;6.434;2022-08-19T07:31:59;9.57;;;9.07;;
16900;SDS011;8567;52.540;6.434;2022-08-19T07:34:29;8.70;;;8.20;;
16900;SDS011;8567;52.540;6.434;2022-08-19T07:36:57;8.40;;;7.95;;
16900;SDS011;8567;52.540;6.434;2022-08-19T07:39:25;8.48;;;8.00;;
16900;SDS011;8567;52.540;6.434;2022-08-19T07:41:55;8.63;;;8.23;;
16900;SDS011;8567;52.540;6.434;2022-08-19T07:44:23;9.93;;;9.43;;
16900;SDS011;8567;52.540;6.434;2022-08-19T07:46:50;10.45;;;9.95;;
16900;SDS011;8567;52.540;6.434;2022-08-19T07:49:20;10.95;;;10.25;;
16900;SDS011;8567;52.540;6.434;2022-08-19T07:51:49;11.57;;;10.98;;
16900;SDS011;8567;52.540;6.434;2022-08-19T07:54:19;11.98;;;11.38;;
16900;SDS011;8567;52.540;6.434;2022-08-19T07:56:46;11.98;;;11.27;;
16900;SDS011;8567;52.540;6.434;2022-08-19T07:59:15;11.30;;;10.70;;
16900;SDS011;8567;52.540;6.434;2022-08-19T08:01:42;11.88;;;11.27;;
16900;SDS011;8567;52.540;6.434;2022-08-19T08:04:09;11.77;;;11.18;;
16900;SDS011;8567;52.540;6.434;2022-08-19T08:06:55;11.73;;;11.02;;
16900;SDS011;8567;52.540;6.434;2022-08-19T08:09:40;10.90;;;10.15;;
16900;SDS011;8567;52.540;6.434;2022-08-19T08:12:10;11.90;;;11.30;;
16900;SDS011;8567;52.540;6.434;2022-08-19T08:14:40;11.63;;;11.02;;
16900;SDS011;8567;52.540;6.434;2022-08-19T08:17:11;13.23;;;12.52;;
16900;SDS011;8567;52.540;6.434;2022-08-19T08:19:39;12.18;;;11.50;;
16900;SDS011;8567;52.540;6.434;2022-08-19T08:22:08;13.48;;;12.77;;
16900;SDS011;8567;52.540;6.434;2022-08-19T08:24:56;11.63;;;10.82;;
16900;SDS011;8567;52.540;6.434;2022-08-19T08:27:26;12.10;;;11.40;;
16900;SDS011;8567;52.540;6.434;2022-08-19T08:29:54;13.10;;;12.40;;
16900;SDS011;8567;52.540;6.434;2022-08-19T08:32:21;13.00;;;12.35;;
16900;SDS011;8567;52.540;6.434;2022-08-19T08:34:47;12.52;;;11.88;;
16900;SDS011;8567;52.540;6.434;2022-08-19T08:37:15;13.55;;;12.85;;
16900;SDS011;8567;52.540;6.434;2022-08-19T08:39:42;13.27;;;12.57;;
16900;SDS011;8567;52.540;6.434;2022-08-19T08:42:11;13.15;;;12.45;;
16900;SDS011;8567;52.540;6.434;2022-08-19T08:44:43;12.25;;;11.63;;
16900;SDS011;8567;52.540;6.434;2022-08-19T08:47:17;12.50;;;11.80;;
16900;SDS011;8567;52.540;6.434;2022-08-19T08:49:47;12.88;;;12.18;;
16900;SDS011;8567;52.540;6.434;2022-08-19T08:52:21;13.07;;;12.38;;
16900;SDS011;8567;52.540;6.434;2022-08-19T08:54:50;13.80;;;13.10;;
16900;SDS011;8567;52.540;6.434;2022-08-19T08:57:22;13.80;;;13.10;;
16900;SDS011;8567;52.540;6.434;2022-08-19T08:59:52;13.57;;;12.88;;
16900;SDS011;8567;52.540;6.434;2022-08-19T09:02:23;15.40;;;14.60;;
16900;SDS011;8567;52.540;6.434;2022-08-19T09:04:51;13.82;;;13.13;;
16900;SDS011;8567;52.540;6.434;2022-08-19T09:07:25;13.30;;;12.65;;
16900;SDS011;8567;52.540;6.434;2022-08-19T09:10:08;16.65;;;15.75;;
16900;SDS011;8567;52.540;6.434;2022-08-19T09:12:48;13.98;;;13.27;;
16900;SDS011;8567;52.540;6.434;2022-08-19T09:15:25;13.68;;;12.88;;
16900;SDS011;8567;52.540;6.434;2022-08-19T09:17:59;14.63;;;13.93;;
16900;SDS011;8567;52.540;6.434;2022-08-19T09:20:27;12.80;;;12.10;;
16900;SDS011;8567;52.540;6.434;2022-08-19T09:22:55;12.95;;;12.35;;
16900;SDS011;8567;52.540;6.434;2022-08-19T09:25:22;12.98;;;12.27;;
16900;SDS011;8567;52.540;6.434;2022-08-19T09:27:50;13.82;;;13.13;;
16900;SDS011;8567;52.540;6.434;2022-08-19T09:30:18;13.45;;;12.75;;
16900;SDS011;8567;52.540;6.434;2022-08-19T09:32:48;14.90;;;14.20;;
16900;SDS011;8567;52.540;6.434;2022-08-19T09:35:17;12.82;;;12.23;;
16900;SDS011;8567;52.540;6.434;2022-08-19T09:37:47;13.23;;;12.45;;
16900;SDS011;8567;52.540;6.434;2022-08-19T09:40:15;14.00;;;13.30;;
16900;SDS011;8567;52.540;6.434;2022-08-19T09:42:43;12.38;;;11.68;;
16900;SDS011;8567;52.540;6.434;2022-08-19T09:45:11;14.32;;;13.52;;
16900;SDS011;8567;52.540;6.434;2022-08-19T09:47:38;13.88;;;13.10;;
16900;SDS011;8567;52.540;6.434;2022-08-19T09:50:06;13.80;;;13.10;;
16900;SDS011;8567;52.540;6.434;2022-08-19T09:52:34;13.77;;;13.07;;
16900;SDS011;8567;52.540;6.434;2022-08-19T09:55:02;14.10;;;13.40;;
16900;SDS011;8567;52.540;6.434;2022-08-19T09:57:30;14.32;;;13.52;;
16900;SDS011;8567;52.540;6.434;2022-08-19T09:59:58;15.55;;;14.75;;
16900;SDS011;8567;52.540;6.434;2022-08-19T10:02:24;12.23;;;11.57;;
16900;SDS011;8567;52.540;6.434;2022-08-19T10:04:51;12.35;;;11.65;;
16900;SDS011;8567;52.540;6.434;2022-08-19T10:07:35;10.43;;;9.93;;
16900;SDS011;8567;52.540;6.434;2022-08-19T10:10:03;9.90;;;9.40;;
16900;SDS011;8567;52.540;6.434;2022-08-19T10:12:32;10.43;;;9.82;;
16900;SDS011;8567;52.540;6.434;2022-08-19T10:15:00;11.05;;;10.50;;
16900;SDS011;8567;52.540;6.434;2022-08-19T10:17:27;10.50;;;10.00;;
16900;SDS011;8567;52.540;6.434;2022-08-19T10:19:53;10.15;;;9.65;;
16900;SDS011;8567;52.540;6.434;2022-08-19T10:22:20;9.82;;;9.32;;
16900;SDS011;8567;52.540;6.434;2022-08-19T10:24:47;9.30;;;8.82;;
16900;SDS011;8567;52.540;6.434;2022-08-19T10:27:15;10.07;;;9.57;;
16900;SDS011;8567;52.540;6.434;2022-08-19T10:29:43;9.45;;;8.95;;
16900;SDS011;8567;52.540;6.434;2022-08-19T10:32:09;10.15;;;9.65;;
16900;SDS011;8567;52.540;6.434;2022-08-19T10:34:37;9.73;;;9.07;;
16900;SDS011;8567;52.540;6.434;2022-08-19T10:37:05;9.88;;;9.38;;
16900;SDS011;8567;52.540;6.434;2022-08-19T10:39:32;10.35;;;9.85;;
16900;SDS011;8567;52.540;6.434;2022-08-19T10:42:03;10.13;;;9.43;;
16900;SDS011;8567;52.540;6.434;2022-08-19T10:44:31;11.23;;;10.70;;
16900;SDS011;8567;52.540;6.434;2022-08-19T10:47:01;10.18;;;9.68;;
16900;SDS011;8567;52.540;6.434;2022-08-19T10:49:29;10.80;;;10.10;;
16900;SDS011;8567;52.540;6.434;2022-08-19T10:51:57;11.02;;;10.52;;
16900;SDS011;8567;52.540;6.434;2022-08-19T10:54:41;11.60;;;11.00;;
16900;SDS011;8567;52.540;6.434;2022-08-19T10:57:25;10.48;;;9.80;;
16900;SDS011;8567;52.540;6.434;2022-08-19T10:59:56;9.80;;;9.32;;
16900;SDS011;8567;52.540;6.434;2022-08-19T11:02:24;10.85;;;10.15;;
16900;SDS011;8567;52.540;6.434;2022-08-19T11:04:51;11.18;;;10.60;;
16900;SDS011;8567;52.540;6.434;2022-08-19T11:07:17;11.48;;;10.88;;
16900;SDS011;8567;52.540;6.434;2022-08-19T11:09:44;12.10;;;11.48;;
16900;SDS011;8567;52.540;6.434;2022-08-19T11:12:12;11.52;;;10.95;;
16900;SDS011;8567;52.540;6.434;2022-08-19T11:14:40;11.30;;;10.50;;
16900;SDS011;8567;52.540;6.434;2022-08-19T11:17:07;11.50;;;10.93;;
16900;SDS011;8567;52.540;6.434;2022-08-19T11:19:35;11.18;;;10.57;;
16900;SDS011;8567;52.540;6.434;2022-08-19T11:22:02;11.98;;;11.38;;
16900;SDS011;8567;52.540;6.434;2022-08-19T11:24:29;10.50;;;9.93;;
16900;SDS011;8567;52.540;6.434;2022-08-19T11:27:00;11.43;;;10.77;;
16900;SDS011;8567;52.540;6.434;2022-08-19T11:29:29;11.43;;;10.80;;
16900;SDS011;8567;52.540;6.434;2022-08-19T11:31:56;10.98;;;10.38;;
16900;SDS011;8567;52.540;6.434;2022-08-19T11:34:24;10.15;;;9.65;;
16900;SDS011;8567;52.540;6.434;2022-08-19T11:36:54;10.07;;;9.48;;
16900;SDS011;8567;52.540;6.434;2022-08-19T11:39:23;9.95;;;9.45;;
16900;SDS011;8567;52.540;6.434;2022-08-19T11:41:50;10.13;;;9.63;;
16900;SDS011;8567;52.540;6.434;2022-08-19T11:44:17;10.18;;;9.57;;
16900;SDS011;8567;52.540;6.434;2022-08-19T11:46:45;9.57;;;8.98;;
16900;SDS011;8567;52.540;6.434;2022-08-19T11:49:12;9.15;;;8.73;;
16900;SDS011;8567;52.540;6.434;2022-08-19T11:51:39;10.23;;;9.73;;
16900;SDS011;8567;52.540;6.434;2022-08-19T11:54:09;9.55;;;8.95;;
16900;SDS011;8567;52.540;6.434;2022-08-19T11:56:38;9.65;;;9.10;;
16900;SDS011;8567;52.540;6.434;2022-08-19T11:59:05;10.68;;;9.98;;
16900;SDS011;8567;52.540;6.434;2022-08-19T12:01:32;10.80;;;10.20;;
16900;SDS011;8567;52.540;6.434;2022-08-19T12:03:59;10.88;;;10.18;;
16900;SDS011;8567;52.540;6.434;2022-08-19T12:06:27;10.90;;;10.20;;
16900;SDS011;8567;52.540;6.434;2022-08-19T12:08:56;11.18;;;10.55;;
16900;SDS011;8567;52.540;6.434;2022-08-19T12:11:26;11.60;;;10.90;;
16900;SDS011;8567;52.540;6.434;2022-08-19T12:13:53;11.38;;;10.77;;
16900;SDS011;8567;52.540;6.434;2022-08-19T12:16:21;11.35;;;10.75;;
16900;SDS011;8567;52.540;6.434;2022-08-19T12:18:50;11.15;;;10.45;;
16900;SDS011;8567;52.540;6.434;2022-08-19T12:21:18;12.70;;;12.00;;
16900;SDS011;8567;52.540;6.434;2022-08-19T12:23:47;12.57;;;11.98;;
16900;SDS011;8567;52.540;6.434;2022-08-19T12:26:14;13.88;;;13.07;;
16900;SDS011;8567;52.540;6.434;2022-08-19T12:28:43;14.10;;;13.40;;
16900;SDS011;8567;52.540;6.434;2022-08-19T12:31:10;14.55;;;13.85;;
16900;SDS011;8567;52.540;6.434;2022-08-19T12:33:37;15.18;;;14.38;;
16900;SDS011;8567;52.540;6.434;2022-08-19T12:36:06;14.82;;;14.13;;
16900;SDS011;8567;52.540;6.434;2022-08-19T12:38:37;15.25;;;14.52;;
16900;SDS011;8567;52.540;6.434;2022-08-19T12:41:05;14.93;;;14.23;;
16900;SDS011;8567;52.540;6.434;2022-08-19T12:43:32;16.48;;;15.68;;
16900;SDS011;8567;52.540;6.434;2022-08-19T12:46:01;15.90;;;15.10;;
16900;SDS011;8567;52.540;6.434;2022-08-19T12:48:29;16.08;;;15.30;;
16900;SDS011;8567;52.540;6.434;2022-08-19T12:50:55;17.58;;;16.67;;
16900;SDS011;8567;52.540;6.434;2022-08-19T12:53:22;18.27;;;17.38;;
16900;SDS011;8567;52.540;6.434;2022-08-19T12:55:54;17.73;;;16.83;;
16900;SDS011;8567;52.540;6.434;2022-08-19T12:58:22;17.75;;;16.85;;
16900;SDS011;8567;52.540;6.434;2022-08-19T13:00:49;19.73;;;18.73;;
16900;SDS011;8567;52.540;6.434;2022-08-19T13:03:17;20.60;;;19.40;;
16900;SDS011;8567;52.540;6.434;2022-08-19T13:05:44;20.10;;;18.75;;
16900;SDS011;8567;52.540;6.434;2022-08-19T13:08:11;20.83;;;19.63;;
16900;SDS011;8567;52.540;6.434;2022-08-19T13:10:37;21.98;;;20.83;;
16900;SDS011;8567;52.540;6.434;2022-08-19T13:13:05;21.25;;;20.02;;
16900;SDS011;8567;52.540;6.434;2022-08-19T13:15:35;19.58;;;18.58;;
16900;SDS011;8567;52.540;6.434;2022-08-19T13:18:04;19.33;;;18.33;;
16900;SDS011;8567;52.540;6.434;2022-08-19T13:20:33;18.38;;;17.27;;
16900;SDS011;8567;52.540;6.434;2022-08-19T13:23:01;19.50;;;18.45;;
16900;SDS011;8567;52.540;6.434;2022-08-19T13:25:28;19.67;;;18.67;;
16900;SDS011;8567;52.540;6.434;2022-08-19T13:27:55;19.45;;;18.42;;
16900;SDS011;8567;52.540;6.434;2022-08-19T13:30:22;18.77;;;17.77;;
16900;SDS011;8567;52.540;6.434;2022-08-19T13:33:07;17.90;;;17.00;;
16900;SDS011;8567;52.540;6.434;2022-08-19T13:35:38;16.20;;;15.40;;
16900;SDS011;8567;52.540;6.434;2022-08-19T13:38:06;16.75;;;15.85;;
16900;SDS011;8567;52.540;6.434;2022-08-19T13:40:34;16.30;;;15.50;;
16900;SDS011;8567;52.540;6.434;2022-08-19T13:43:01;16.20;;;15.32;;
16900;SDS011;8567;52.540;6.434;2022-08-19T13:45:31;14.52;;;13.82;;
16900;SDS011;8567;52.540;6.434;2022-08-19T13:47:59;15.07;;;14.27;;
16900;SDS011;8567;52.540;6.434;2022-08-19T13:50:30;15.85;;;15.00;;
16900;SDS011;8567;52.540;6.434;2022-08-19T13:52:59;14.57;;;13.88;;
16900;SDS011;8567;52.540;6.434;2022-08-19T13:55:26;15.00;;;14.20;;
16900;SDS011;8567;52.540;6.434;2022-08-19T13:57:54;13.45;;;12.75;;
16900;SDS011;8567;52.540;6.434;2022-08-19T14:00:23;13.82;;;13.13;;
16900;SDS011;8567;52.540;6.434;2022-08-19T14:02:53;14.95;;;14.15;;
16900;SDS011;8567;52.540;6.434;2022-08-19T14:05:21;15.77;;;14.80;;
16900;SDS011;8567;52.540;6.434;2022-08-19T14:07:49;17.58;;;16.63;;
16900;SDS011;8567;52.540;6.434;2022-08-19T14:10:17;17.08;;;15.98;;
16900;SDS011;8567;52.540;6.434;2022-08-19T14:12:44;19.73;;;18.52;;
16900;SDS011;8567;52.540;6.434;2022-08-19T14:15:12;19.65;;;18.45;;
16900;SDS011;8567;52.540;6.434;2022-08-19T14:17:41;23.83;;;22.42;;
16900;SDS011;8567;52.540;6.434;2022-08-19T14:20:09;23.83;;;22.60;;
16900;SDS011;8567;52.540;6.434;2022-08-19T14:22:38;24.83;;;23.42;;
16900;SDS011;8567;52.540;6.434;2022-08-19T14:25:07;23.67;;;22.48;;
16900;SDS011;8567;52.540;6.434;2022-08-19T14:27:37;21.17;;;20.10;;
16900;SDS011;8567;52.540;6.434;2022-08-19T14:30:06;22.45;;;21.23;;
16900;SDS011;8567;52.540;6.434;2022-08-19T14:32:34;20.10;;;18.90;;
16900;SDS011;8567;52.540;6.434;2022-08-19T14:35:01;19.60;;;18.50;;
16900;SDS011;8567;52.540;6.434;2022-08-19T14:37:28;22.10;;;20.80;;
16900;SDS011;8567;52.540;6.434;2022-08-19T14:39:54;21.25;;;20.10;;
16900;SDS011;8567;52.540;6.434;2022-08-19T14:42:21;19.38;;;18.23;;
16900;SDS011;8567;52.540;6.434;2022-08-19T14:44:49;16.15;;;15.25;;
16900;SDS011;8567;52.540;6.434;2022-08-19T14:47:16;16.10;;;15.20;;
16900;SDS011;8567;52.540;6.434;2022-08-19T14:49:43;24.15;;;22.80;;
16900;SDS011;8567;52.540;6.434;2022-08-19T14:52:09;24.85;;;23.52;;
16900;SDS011;8567;52.540;6.434;2022-08-19T14:54:36;24.58;;;23.25;;
16900;SDS011;8567;52.540;6.434;2022-08-19T14:57:03;23.05;;;21.65;;